Time;durP1;ratioP1;P1;durP2;ratioP2;P2;SDS_P1;SDS_P2;PMS_P1;PMS_P2;Temp;Humidity;BMP_temperature;BMP_pressure;BME280_temperature;BME280_humidity;BME280_pressure;Samples;Min_cycle;Max_cycle;Signal;HPM_P1;HPM_P2
2022/01/15 00:25:32;;;;;;;18.37;6.00;;;3.00;99.90;;;;;;5271294;23;21092;-96
2022/01/15 00:27:59;;;;;;;20.80;5.93;;;3.10;99.90;;;;;;4975161;28;20269;-96
2022/01/15 00:30:25;;;;;;;15.73;5.80;;;3.00;99.90;;;;;;4977150;28;20181;-96
2022/01/15 00:32:52;;;;;;;15.47;6.33;;;3.10;99.90;;;;;;4976296;28;20195;-96
2022/01/15 00:35:19;;;;;;;15.40;5.87;;;3.00;99.90;;;;;;4980876;28;20185;-96
2022/01/15 00:37:46;;;;;;;15.40;6.03;;;3.00;99.90;;;;;;4981358;28;20181;-96
2022/01/15 00:40:15;;;;;;;23.20;5.47;;;3.10;99.90;;;;;;4980239;28;20208;-96
2022/01/15 00:42:42;;;;;;;12.83;5.23;;;3.00;99.90;;;;;;4980414;28;20180;-96
2022/01/15 00:45:14;;;;;;;14.83;5.10;;;3.00;99.90;;;;;;4980805;28;20646;-96
2022/01/15 00:47:40;;;;;;;18.00;5.30;;;3.10;99.90;;;;;;4980277;28;20177;-96
2022/01/15 00:50:09;;;;;;;14.37;4.83;;;3.10;99.90;;;;;;4981940;28;20263;-96
2022/01/15 00:52:35;;;;;;;18.10;6.00;;;3.00;99.90;;;;;;4981291;28;20181;-96
2022/01/15 00:55:02;;;;;;;17.67;7.17;;;3.00;99.90;;;;;;4981551;28;20181;-96
2022/01/15 00:57:27;;;;;;;20.87;7.03;;;3.00;99.90;;;;;;4979881;28;20523;-96
2022/01/15 00:59:53;;;;;;;15.90;5.90;;;3.10;99.90;;;;;;4979997;28;20208;-96
2022/01/15 01:02:19;;;;;;;19.20;5.70;;;3.00;99.90;;;;;;4978814;28;20205;-96
2022/01/15 01:04:45;;;;;;;14.30;5.40;;;3.10;99.90;;;;;;4980545;28;20187;-96
2022/01/15 01:07:12;;;;;;;16.50;6.23;;;3.00;99.90;;;;;;4980358;28;20184;-95
2022/01/15 01:12:33;;;;;;;20.20;5.87;;;3.00;99.90;;;;;;4983635;28;20172;-96
2022/01/15 01:23:13;;;;;;;17.73;6.50;;;2.90;99.90;;;;;;4982275;28;20280;-96
2022/01/15 01:25:43;;;;;;;24.80;7.67;;;2.90;99.90;;;;;;4983220;28;20209;-96
2022/01/15 01:28:15;;;;;;;35.33;11.47;;;2.90;99.90;;;;;;4963124;29;20181;-96
2022/01/15 01:30:53;;;;;;;26.17;8.30;;;2.90;99.90;;;;;;4964939;28;20209;-96
2022/01/15 01:33:32;;;;;;;20.67;7.87;;;2.80;99.90;;;;;;4964879;28;20170;-96
2022/01/15 01:36:24;;;;;;;18.70;6.60;;;2.70;99.90;;;;;;4962576;28;20174;-96
2022/01/15 01:38:56;;;;;;;28.50;6.20;;;2.70;99.90;;;;;;4964540;28;20204;-96
2022/01/15 01:41:23;;;;;;;16.97;5.60;;;2.70;99.90;;;;;;4962247;28;20288;-96
2022/01/15 01:43:56;;;;;;;28.70;5.83;;;2.70;99.90;;;;;;4978210;28;20204;-96
2022/01/15 01:48:58;;;;;;;16.27;6.67;;;2.60;99.90;;;;;;4979019;28;20496;-95
2022/01/15 01:51:34;;;;;;;28.53;7.37;;;2.60;99.90;;;;;;4977361;28;20183;-96
2022/01/15 01:54:02;;;;;;;16.87;6.67;;;2.60;99.90;;;;;;4976963;28;20187;-96
2022/01/15 01:56:29;;;;;;;20.90;6.50;;;2.60;99.90;;;;;;4976519;28;20540;-96
2022/01/15 01:58:58;;;;;;;21.33;6.77;;;2.60;99.90;;;;;;4978782;28;20239;-96
2022/01/15 02:01:24;;;;;;;12.70;5.23;;;2.60;99.90;;;;;;4977241;28;20255;-96
2022/01/15 02:03:51;;;;;;;18.50;6.57;;;2.50;99.90;;;;;;4978070;28;20177;-96
2022/01/15 02:06:18;;;;;;;17.47;5.97;;;2.40;99.90;;;;;;4976937;28;20188;-96
2022/01/15 02:08:44;;;;;;;16.77;5.00;;;2.40;99.90;;;;;;4977050;28;20180;-96
2022/01/15 02:11:11;;;;;;;16.40;5.80;;;2.40;99.90;;;;;;4977014;28;20250;-96
2022/01/15 02:13:44;;;;;;;19.30;6.17;;;2.40;99.90;;;;;;4977317;28;20181;-96
2022/01/15 02:16:13;;;;;;;21.13;6.90;;;2.40;99.90;;;;;;4976706;28;20164;-96
2022/01/15 02:18:39;;;;;;;25.40;9.00;;;2.40;99.90;;;;;;4977143;28;20213;-96
2022/01/15 02:23:34;;;;;;;34.80;11.47;;;2.40;99.90;;;;;;4978932;28;20187;-95
2022/01/15 02:26:06;;;;;;;31.13;11.37;;;2.50;99.90;;;;;;4977036;28;20604;-96
2022/01/15 02:28:41;;;;;;;27.33;9.27;;;2.50;99.90;;;;;;4978030;28;20189;-96
2022/01/15 02:31:16;;;;;;;27.77;8.17;;;2.50;99.90;;;;;;4978322;28;20180;-96
2022/01/15 02:33:44;;;;;;;25.87;7.90;;;2.50;99.90;;;;;;4978408;28;20200;-96
2022/01/15 02:36:16;;;;;;;23.03;7.60;;;2.50;99.90;;;;;;4977542;28;20263;-96
2022/01/15 02:38:43;;;;;;;20.57;7.07;;;2.60;99.90;;;;;;4978208;28;20173;-96
2022/01/15 02:41:09;;;;;;;38.33;7.13;;;2.60;99.90;;;;;;4977969;28;20208;-96
2022/01/15 02:43:35;;;;;;;25.67;7.50;;;2.50;99.90;;;;;;4977610;28;20176;-96
2022/01/15 02:46:20;;;;;;;25.73;6.60;;;2.60;99.90;;;;;;4978570;28;20181;-96
2022/01/15 02:48:51;;;;;;;17.60;5.57;;;2.60;99.90;;;;;;4978702;28;20192;-96
2022/01/15 02:51:18;;;;;;;76.87;7.20;;;2.60;99.90;;;;;;4977710;28;20172;-96
2022/01/15 02:53:46;;;;;;;19.63;5.23;;;2.60;99.90;;;;;;4977165;28;20191;-96
2022/01/15 02:56:12;;;;;;;17.03;5.90;;;2.60;99.90;;;;;;4977384;28;20184;-96
2022/01/15 02:58:39;;;;;;;19.97;6.40;;;2.60;99.90;;;;;;4977691;28;20180;-96
2022/01/15 03:01:06;;;;;;;21.23;5.90;;;2.60;99.90;;;;;;4977713;28;20212;-96
2022/01/15 03:03:34;;;;;;;52.67;4.83;;;2.60;99.90;;;;;;4978994;28;20180;-96
2022/01/15 03:05:59;;;;;;;28.03;4.60;;;2.60;99.90;;;;;;4977388;28;20176;-96
2022/01/15 03:08:25;;;;;;;14.77;3.87;;;2.60;99.90;;;;;;4977753;28;20512;-96
2022/01/15 03:10:51;;;;;;;18.40;4.87;;;2.60;99.90;;;;;;4978225;28;20169;-96
2022/01/15 03:13:17;;;;;;;11.07;4.40;;;2.60;99.90;;;;;;4977750;28;20264;-96
2022/01/15 03:15:43;;;;;;;17.57;4.87;;;2.70;99.90;;;;;;4978194;28;20592;-96
2022/01/15 03:18:08;;;;;;;10.03;4.47;;;2.60;99.90;;;;;;4978566;28;20234;-96
2022/01/15 03:20:35;;;;;;;36.13;6.00;;;2.70;99.90;;;;;;4977583;28;20287;-96
2022/01/15 03:23:00;;;;;;;29.07;5.17;;;2.70;99.90;;;;;;4977730;28;20200;-96
2022/01/15 03:25:26;;;;;;;10.93;4.47;;;2.70;99.90;;;;;;4977391;28;20184;-96
2022/01/15 03:27:54;;;;;;;11.70;4.53;;;2.70;99.90;;;;;;4958826;28;20279;-96
2022/01/15 03:30:20;;;;;;;29.87;5.10;;;2.70;99.90;;;;;;4958675;28;20181;-96
2022/01/15 03:32:46;;;;;;;90.53;7.17;;;2.70;99.90;;;;;;4957774;28;20244;-96
2022/01/15 03:35:14;;;;;;;12.33;4.57;;;2.70;99.90;;;;;;4957482;28;20181;-96
2022/01/15 03:37:42;;;;;;;44.43;4.93;;;2.80;99.90;;;;;;4957777;28;20252;-96
2022/01/15 03:40:10;;;;;;;14.77;3.57;;;2.70;99.90;;;;;;4957614;28;20624;-96
2022/01/15 03:42:36;;;;;;;23.67;3.20;;;2.70;99.90;;;;;;4958430;28;20264;-96
2022/01/15 03:45:03;;;;;;;13.43;3.20;;;2.70;99.90;;;;;;4957735;28;20262;-96
2022/01/15 03:47:29;;;;;;;11.03;3.67;;;2.60;99.90;;;;;;4957063;28;20189;-96
2022/01/15 03:49:55;;;;;;;25.87;4.27;;;2.60;99.90;;;;;;4957650;28;20625;-96
2022/01/15 03:52:20;;;;;;;22.13;3.70;;;2.70;99.90;;;;;;4956784;28;20619;-96
2022/01/15 03:54:46;;;;;;;16.53;4.00;;;2.60;99.90;;;;;;4957501;28;20185;-96
2022/01/15 03:57:12;;;;;;;3.93;3.00;;;2.70;99.90;;;;;;4969463;28;20180;-96
2022/01/15 03:59:38;;;;;;;10.07;3.27;;;2.70;99.90;;;;;;4976214;28;20232;-96
2022/01/15 04:02:04;;;;;;;40.53;4.17;;;2.70;99.90;;;;;;4979193;28;20655;-96
2022/01/15 04:04:29;;;;;;;33.43;3.40;;;2.70;99.90;;;;;;4979428;28;20670;-96
2022/01/15 04:06:55;;;;;;;19.07;3.40;;;2.60;99.90;;;;;;4979048;28;20188;-96
2022/01/15 04:09:21;;;;;;;19.13;3.37;;;2.60;99.90;;;;;;4980172;28;20227;-96
2022/01/15 04:11:47;;;;;;;44.93;3.93;;;2.60;99.90;;;;;;4979205;28;20180;-96
2022/01/15 04:14:13;;;;;;;5.43;3.87;;;2.60;99.90;;;;;;4980424;28;20243;-96
2022/01/15 04:16:39;;;;;;;8.50;3.30;;;2.60;99.90;;;;;;4980189;28;20184;-96
2022/01/15 04:19:07;;;;;;;13.47;3.70;;;2.60;99.90;;;;;;4979431;28;20181;-96
2022/01/15 04:21:34;;;;;;;24.60;5.43;;;2.60;99.90;;;;;;4979180;28;20272;-96
2022/01/15 04:24:00;;;;;;;28.27;4.50;;;2.60;99.90;;;;;;4979899;28;20181;-96
2022/01/15 04:26:27;;;;;;;19.10;5.00;;;2.60;99.90;;;;;;4978429;28;20679;-96
2022/01/15 04:28:55;;;;;;;7.47;4.33;;;2.60;99.90;;;;;;4980026;28;20611;-96
2022/01/15 04:31:21;;;;;;;5.77;4.00;;;2.60;99.90;;;;;;4978938;28;20227;-96
2022/01/15 04:33:47;;;;;;;9.30;3.83;;;2.60;99.90;;;;;;4979122;28;20559;-96
2022/01/15 04:36:13;;;;;;;6.67;4.03;;;2.60;99.90;;;;;;4979634;28;20682;-96
2022/01/15 04:38:40;;;;;;;17.80;3.80;;;2.60;99.90;;;;;;4978991;28;20173;-96
2022/01/15 04:41:07;;;;;;;13.73;3.70;;;2.50;99.90;;;;;;4978656;28;20196;-96
2022/01/15 04:43:33;;;;;;;20.00;2.90;;;2.60;99.90;;;;;;4979090;28;20203;-96
2022/01/15 04:45:59;;;;;;;38.70;3.40;;;2.50;99.90;;;;;;4978451;28;20515;-96
2022/01/15 04:48:25;;;;;;;11.40;2.63;;;2.50;99.90;;;;;;4979552;28;20181;-96
2022/01/15 04:50:51;;;;;;;6.53;2.47;;;2.50;99.90;;;;;;4979690;28;20180;-96
2022/01/15 04:53:17;;;;;;;10.67;2.70;;;2.40;99.90;;;;;;4979399;28;20177;-96
2022/01/15 04:55:43;;;;;;;20.90;3.50;;;2.50;99.90;;;;;;4979360;28;20181;-96
2022/01/15 04:58:09;;;;;;;24.30;3.50;;;2.50;99.90;;;;;;4959177;28;20181;-96
2022/01/15 05:00:36;;;;;;;13.87;2.90;;;2.50;99.90;;;;;;4960680;28;20715;-96
2022/01/15 05:03:02;;;;;;;48.43;3.67;;;2.50;99.90;;;;;;4960307;28;20620;-96
2022/01/15 05:05:29;;;;;;;8.50;2.90;;;2.40;99.90;;;;;;4959589;28;20185;-96
2022/01/15 05:07:55;;;;;;;15.37;3.27;;;2.50;99.90;;;;;;4960982;28;20276;-96
2022/01/15 05:10:27;;;;;;;8.87;3.10;;;2.50;99.90;;;;;;4960769;28;20189;-96
2022/01/15 05:12:56;;;;;;;18.33;3.33;;;2.50;99.90;;;;;;4959687;28;20181;-96
2022/01/15 05:15:22;;;;;;;15.03;3.23;;;2.50;99.90;;;;;;4960407;28;20274;-96
2022/01/15 05:17:51;;;;;;;14.90;3.53;;;2.50;99.90;;;;;;4959141;28;20197;-96
2022/01/15 05:20:17;;;;;;;13.87;3.30;;;2.60;99.90;;;;;;4959564;28;20181;-96
2022/01/15 05:22:44;;;;;;;37.83;4.20;;;2.60;99.90;;;;;;4960908;28;20178;-96
2022/01/15 05:25:13;;;;;;;18.73;3.60;;;2.60;99.90;;;;;;4959681;28;20522;-96
2022/01/15 05:27:40;;;;;;;27.47;3.67;;;2.60;99.90;;;;;;4959727;28;20236;-96
2022/01/15 05:30:07;;;;;;;13.73;3.57;;;2.50;99.90;;;;;;4959697;28;20173;-96
2022/01/15 05:32:34;;;;;;;9.17;3.17;;;2.60;99.90;;;;;;4959101;28;20181;-96
2022/01/15 05:35:00;;;;;;;16.20;3.20;;;2.60;99.90;;;;;;4958954;28;20177;-96
2022/01/15 05:37:26;;;;;;;28.67;3.33;;;2.60;99.90;;;;;;4959330;28;20193;-96
2022/01/15 05:39:52;;;;;;;17.30;3.30;;;2.50;99.90;;;;;;4958906;28;20626;-95
2022/01/15 05:42:18;;;;;;;11.20;4.30;;;2.50;99.90;;;;;;4959053;28;20252;-96
2022/01/15 05:44:44;;;;;;;14.10;3.10;;;2.50;99.90;;;;;;4958626;28;20248;-96
2022/01/15 05:47:10;;;;;;;19.13;2.93;;;2.50;99.90;;;;;;4958791;28;20192;-96
2022/01/15 05:49:37;;;;;;;12.67;2.90;;;2.50;99.90;;;;;;4959327;28;20182;-96
2022/01/15 05:52:03;;;;;;;20.57;2.83;;;2.50;99.90;;;;;;4958368;28;20177;-95
2022/01/15 05:54:29;;;;;;;4.23;2.90;;;2.50;99.90;;;;;;4957617;28;20328;-96
2022/01/15 05:56:55;;;;;;;7.63;3.07;;;2.50;99.90;;;;;;4968879;28;20622;-96
2022/01/15 05:59:21;;;;;;;4.23;2.87;;;2.50;99.90;;;;;;4977145;28;20177;-96
2022/01/15 06:01:47;;;;;;;5.67;2.93;;;2.50;99.90;;;;;;4977660;28;20209;-96
2022/01/15 06:04:13;;;;;;;4.77;2.83;;;2.50;99.90;;;;;;4977091;28;20180;-96
2022/01/15 06:06:39;;;;;;;4.27;3.13;;;2.50;99.90;;;;;;4960827;28;20184;-95
2022/01/15 06:09:04;;;;;;;4.97;2.90;;;2.50;99.90;;;;;;4977375;28;20674;-96
2022/01/15 06:11:31;;;;;;;5.33;3.07;;;2.50;99.90;;;;;;4976848;28;20184;-96
2022/01/15 06:13:56;;;;;;;4.00;2.70;;;2.50;99.90;;;;;;4976061;28;20164;-96
2022/01/15 06:16:23;;;;;;;6.13;3.13;;;2.50;99.90;;;;;;4976209;28;20523;-95
2022/01/15 06:18:49;;;;;;;4.30;2.90;;;2.50;99.90;;;;;;4976259;28;20549;-96
2022/01/15 06:21:15;;;;;;;5.70;3.57;;;2.50;99.90;;;;;;4976265;28;20223;-95
2022/01/15 06:23:41;;;;;;;6.63;3.70;;;2.50;99.90;;;;;;4976414;28;20168;-96
2022/01/15 06:26:07;;;;;;;5.87;3.53;;;2.50;99.90;;;;;;4976319;28;20308;-96
2022/01/15 06:28:33;;;;;;;8.70;4.07;;;2.50;99.90;;;;;;4975830;28;20183;-96
2022/01/15 06:30:59;;;;;;;33.33;5.10;;;2.50;99.90;;;;;;4977081;28;20181;-95
2022/01/15 06:33:25;;;;;;;5.47;4.03;;;2.50;99.90;;;;;;4976192;28;20177;-96
2022/01/15 06:35:51;;;;;;;19.40;4.83;;;2.50;99.90;;;;;;4975871;28;20622;-96
2022/01/15 06:38:17;;;;;;;9.77;4.57;;;2.40;99.90;;;;;;4976685;28;20264;-96
2022/01/15 06:40:43;;;;;;;12.20;4.73;;;2.40;99.90;;;;;;4975797;28;20651;-96
2022/01/15 06:43:10;;;;;;;7.33;4.57;;;2.40;99.90;;;;;;4975459;28;20177;-96
2022/01/15 06:45:36;;;;;;;8.17;4.70;;;2.40;99.90;;;;;;4976216;28;20691;-96
2022/01/15 06:48:03;;;;;;;10.13;5.17;;;2.40;99.90;;;;;;4976543;28;20215;-96
2022/01/15 06:50:29;;;;;;;11.50;5.57;;;2.40;99.90;;;;;;4977537;28;20184;-95
2022/01/15 06:52:56;;;;;;;10.37;4.80;;;2.40;99.90;;;;;;4976872;28;20173;-96
2022/01/15 06:55:22;;;;;;;9.70;5.50;;;2.40;99.90;;;;;;4976636;28;20172;-95
2022/01/15 06:57:48;;;;;;;16.60;5.30;;;2.40;99.90;;;;;;4977183;28;20587;-96
2022/01/15 07:00:14;;;;;;;12.77;4.63;;;2.40;99.90;;;;;;4976485;28;20172;-96
2022/01/15 07:02:40;;;;;;;19.23;5.13;;;2.40;99.90;;;;;;4976946;28;20185;-96
2022/01/15 07:05:09;;;;;;;10.20;5.47;;;2.40;99.90;;;;;;4977207;28;20674;-96
2022/01/15 07:07:39;;;;;;;10.57;5.37;;;2.40;99.90;;;;;;4976012;28;20248;-96
2022/01/15 07:10:07;;;;;;;9.77;5.37;;;2.40;99.90;;;;;;4976791;28;20173;-96
2022/01/15 07:12:32;;;;;;;15.17;6.50;;;2.40;99.90;;;;;;4975853;28;20196;-96
2022/01/15 07:14:58;;;;;;;29.53;6.10;;;2.40;99.90;;;;;;4976637;28;20200;-96
2022/01/15 07:17:24;;;;;;;30.80;6.40;;;2.30;99.90;;;;;;4976932;28;20181;-96
2022/01/15 07:19:51;;;;;;;19.83;7.57;;;2.40;99.90;;;;;;4976366;28;20187;-96
2022/01/15 07:22:17;;;;;;;56.63;7.23;;;2.40;99.90;;;;;;4975859;28;20208;-96
2022/01/15 07:24:43;;;;;;;14.50;5.73;;;2.40;99.90;;;;;;4976223;28;20192;-95
2022/01/15 07:27:09;;;;;;;40.87;6.33;;;2.40;99.90;;;;;;4975905;28;20302;-96
2022/01/15 07:29:37;;;;;;;31.10;6.67;;;2.40;99.90;;;;;;4976971;28;20202;-96
2022/01/15 07:32:04;;;;;;;23.63;7.30;;;2.40;99.90;;;;;;4977285;28;20177;-95
2022/01/15 07:34:30;;;;;;;11.30;6.70;;;2.40;99.90;;;;;;4960802;28;20587;-96
2022/01/15 07:36:59;;;;;;;42.53;7.47;;;2.40;99.90;;;;;;4978899;28;20180;-96
2022/01/15 07:39:26;;;;;;;20.50;6.20;;;2.40;99.90;;;;;;4980115;28;20616;-96
2022/01/15 07:41:57;;;;;;;14.70;6.00;;;2.40;99.90;;;;;;4980101;28;20220;-96
2022/01/15 07:44:23;;;;;;;38.10;6.40;;;2.40;99.90;;;;;;4980069;28;20180;-96
2022/01/15 07:46:49;;;;;;;9.50;5.00;;;2.40;99.90;;;;;;4981624;28;20187;-96
2022/01/15 07:49:15;;;;;;;34.67;6.00;;;2.40;99.90;;;;;;4980043;28;20212;-95
2022/01/15 07:51:41;;;;;;;42.47;6.30;;;2.40;99.90;;;;;;4980365;28;20216;-96
2022/01/15 07:54:07;;;;;;;21.97;5.50;;;2.40;99.90;;;;;;4980762;28;20496;-96
2022/01/15 07:56:32;;;;;;;25.20;7.60;;;2.40;99.90;;;;;;4981642;28;20199;-96
2022/01/15 07:58:58;;;;;;;19.70;6.50;;;2.40;99.90;;;;;;4979518;28;20267;-96
2022/01/15 08:01:25;;;;;;;26.30;6.70;;;2.50;99.90;;;;;;4960960;28;20239;-96
2022/01/15 08:03:51;;;;;;;27.53;6.67;;;2.50;99.90;;;;;;4980287;28;20188;-96
2022/01/15 08:06:17;;;;;;;22.53;5.67;;;2.50;99.90;;;;;;4980729;28;20192;-96
2022/01/15 08:08:42;;;;;;;28.73;6.07;;;2.50;99.90;;;;;;4980146;28;20279;-95
2022/01/15 08:11:08;;;;;;;32.70;6.83;;;2.60;99.90;;;;;;4983508;28;20188;-96
2022/01/15 08:13:34;;;;;;;27.37;7.03;;;2.60;99.90;;;;;;4981685;28;20204;-96
2022/01/15 08:16:04;;;;;;;17.13;6.23;;;2.60;99.90;;;;;;4979667;28;20184;-96
2022/01/15 08:18:31;;;;;;;28.73;7.50;;;2.60;99.90;;;;;;4979341;28;20192;-94
2022/01/15 08:20:57;;;;;;;55.60;8.40;;;2.70;99.90;;;;;;4979449;28;20307;-96
2022/01/15 08:23:23;;;;;;;25.30;6.67;;;2.70;99.90;;;;;;4980014;28;20629;-96
2022/01/15 08:25:49;;;;;;;26.20;7.30;;;2.70;99.90;;;;;;4977917;28;20224;-96
2022/01/15 08:28:16;;;;;;;16.43;6.30;;;2.80;99.90;;;;;;4960091;29;20655;-96
2022/01/15 08:30:42;;;;;;;44.60;8.47;;;2.80;99.90;;;;;;4975667;28;20192;-95
2022/01/15 08:33:08;;;;;;;59.97;7.47;;;2.80;99.90;;;;;;4978172;28;20264;-95
2022/01/15 08:35:33;;;;;;;14.50;7.70;;;2.90;99.90;;;;;;4977931;28;20224;-95
2022/01/15 08:38:02;;;;;;;32.37;8.33;;;2.90;99.90;;;;;;4977649;28;20181;-96
2022/01/15 08:40:28;;;;;;;33.97;8.20;;;2.90;99.90;;;;;;4978374;28;20223;-96
2022/01/15 08:42:54;;;;;;;43.40;7.83;;;3.00;99.90;;;;;;4977538;28;20192;-96
2022/01/15 08:45:20;;;;;;;22.57;7.80;;;3.00;99.90;;;;;;4977680;28;20184;-95
2022/01/15 08:47:46;;;;;;;90.60;10.63;;;3.10;99.90;;;;;;4977306;28;20271;-96
2022/01/15 08:50:13;;;;;;;31.93;10.20;;;3.10;99.90;;;;;;4978578;28;20227;-95
2022/01/15 08:52:40;;;;;;;40.97;9.23;;;3.20;99.90;;;;;;4977700;28;20216;-96
2022/01/15 08:55:07;;;;;;;100.60;10.67;;;3.20;99.90;;;;;;4979661;28;20204;-95
2022/01/15 08:57:33;;;;;;;42.10;9.27;;;3.20;99.90;;;;;;4975995;28;20195;-95
2022/01/15 09:00:00;;;;;;;50.40;10.53;;;3.30;99.90;;;;;;4979289;28;20526;-96
2022/01/15 09:02:26;;;;;;;84.83;10.97;;;3.30;99.90;;;;;;4973433;28;20213;-94
2022/01/15 09:04:52;;;;;;;62.97;11.57;;;3.30;99.90;;;;;;4959297;29;20192;-94
2022/01/15 09:07:19;;;;;;;61.90;12.03;;;3.30;99.90;;;;;;4967696;28;20279;-96
2022/01/15 09:09:45;;;;;;;30.47;10.67;;;3.40;99.90;;;;;;4977859;28;20181;-95
2022/01/15 09:12:11;;;;;;;40.67;10.63;;;3.40;99.90;;;;;;4978803;28;20185;-96
2022/01/15 09:14:38;;;;;;;71.93;12.63;;;3.50;99.90;;;;;;4979299;28;20256;-96
2022/01/15 09:17:04;;;;;;;34.50;12.63;;;3.50;99.90;;;;;;4978733;28;20207;-95
2022/01/15 09:19:30;;;;;;;28.27;11.83;;;3.50;99.90;;;;;;4978427;28;20620;-93
2022/01/15 09:21:55;;;;;;;47.70;11.57;;;3.50;99.90;;;;;;4982418;28;20771;-96
2022/01/15 09:24:24;;;;;;;43.83;13.10;;;3.60;99.90;;;;;;4982239;28;20223;-96
2022/01/15 09:32:04;;;;;;;52.07;14.40;;;3.80;99.90;;;;;;4978857;28;20183;-94
2022/01/15 09:34:32;;;;;;;28.83;14.13;;;3.80;99.90;;;;;;4977710;28;20173;-96
2022/01/15 09:36:58;;;;;;;34.43;14.43;;;3.80;99.90;;;;;;4976918;28;20199;-96
2022/01/15 09:39:23;;;;;;;31.87;14.17;;;3.90;99.90;;;;;;4977328;28;20180;-94
2022/01/15 09:41:53;;;;;;;26.20;13.77;;;3.90;99.90;;;;;;4977175;28;20216;-94
2022/01/15 09:44:20;;;;;;;39.60;15.17;;;4.00;99.90;;;;;;4969516;28;20193;-93
2022/01/15 09:46:47;;;;;;;34.00;15.20;;;4.00;99.90;;;;;;4974835;28;20211;-93
2022/01/15 09:49:15;;;;;;;29.57;15.43;;;4.00;99.90;;;;;;4973248;28;20642;-95
2022/01/15 09:51:43;;;;;;;34.47;16.20;;;4.00;99.90;;;;;;4974722;28;20185;-95
2022/01/15 09:54:09;;;;;;;30.40;15.87;;;4.00;99.90;;;;;;4975880;28;20611;-94
2022/01/15 09:56:35;;;;;;;33.40;16.87;;;4.10;99.90;;;;;;4972801;28;20247;-93
2022/01/15 09:59:02;;;;;;;29.63;15.17;;;4.10;99.90;;;;;;4975315;28;20185;-93
2022/01/15 10:01:29;;;;;;;28.47;13.97;;;4.20;99.90;;;;;;4976294;28;20781;-94
2022/01/15 10:03:58;;;;;;;29.33;15.53;;;4.20;99.90;;;;;;4976348;28;20195;-94
2022/01/15 10:06:24;;;;;;;30.60;15.63;;;4.20;99.90;;;;;;4976992;28;20314;-94
2022/01/15 10:09:06;;;;;;;30.10;15.63;;;4.30;99.90;;;;;;4976736;28;20219;-94
2022/01/15 10:11:47;;;;;;;28.03;14.53;;;4.40;99.90;;;;;;4976280;28;20324;-94
2022/01/15 10:14:32;;;;;;;27.87;15.03;;;4.40;99.90;;;;;;4976168;28;20176;-93
2022/01/15 10:17:00;;;;;;;30.80;14.90;;;4.40;99.90;;;;;;4975798;28;20278;-94
2022/01/15 10:19:37;;;;;;;32.97;16.00;;;4.40;99.90;;;;;;4975471;28;20642;-93
2022/01/15 10:22:10;;;;;;;28.83;14.43;;;4.50;99.90;;;;;;4975772;28;20269;-95
2022/01/15 10:24:38;;;;;;;30.40;14.17;;;4.50;99.90;;;;;;4975979;28;20259;-93
2022/01/15 10:27:38;;;;;;;27.63;13.70;;;4.50;99.90;;;;;;4975388;28;20692;-93
2022/01/15 10:30:06;;;;;;;28.07;14.43;;;4.60;99.90;;;;;;4944704;28;20573;-94
2022/01/15 10:32:35;;;;;;;28.40;14.73;;;4.60;99.90;;;;;;4973242;28;20200;-93
2022/01/15 10:35:08;;;;;;;27.70;14.07;;;4.70;99.90;;;;;;4960814;28;20179;-93
2022/01/15 10:37:45;;;;;;;27.97;14.83;;;4.70;99.90;;;;;;4975800;28;20275;-93
2022/01/15 10:40:12;;;;;;;29.73;15.07;;;4.70;99.90;;;;;;4976039;28;20175;-93
2022/01/15 10:42:39;;;;;;;33.83;15.37;;;4.70;99.90;;;;;;4975554;28;20200;-93
2022/01/15 10:45:13;;;;;;;27.07;13.70;;;4.70;99.90;;;;;;4974892;28;20220;-93
2022/01/15 10:47:52;;;;;;;30.83;14.77;;;4.80;99.90;;;;;;4973818;28;20188;-93
2022/01/15 10:50:30;;;;;;;32.00;15.20;;;4.90;99.90;;;;;;4975943;28;20177;-94
2022/01/15 10:52:57;;;;;;;30.33;14.53;;;4.90;99.90;;;;;;4975126;28;20188;-93
2022/01/15 10:55:28;;;;;;;26.87;14.03;;;4.90;99.90;;;;;;4976054;28;20272;-93
2022/01/15 10:57:59;;;;;;;31.87;13.67;;;5.00;99.90;;;;;;4975230;28;20278;-93
2022/01/15 11:00:29;;;;;;;25.73;12.87;;;5.00;99.90;;;;;;4977530;28;20195;-93
2022/01/15 11:03:00;;;;;;;26.43;13.00;;;5.00;99.90;;;;;;4975748;28;20243;-94
2022/01/15 11:05:30;;;;;;;26.80;12.50;;;5.00;99.90;;;;;;4975767;28;20612;-92
2022/01/15 11:08:05;;;;;;;27.47;12.47;;;5.10;99.90;;;;;;4975299;28;20176;-93
2022/01/15 11:10:43;;;;;;;29.43;13.33;;;5.10;99.90;;;;;;4978314;28;20183;-94
2022/01/15 11:13:12;;;;;;;28.70;13.00;;;5.10;99.90;;;;;;4979355;28;20219;-94
2022/01/15 11:15:39;;;;;;;22.23;12.10;;;5.10;99.90;;;;;;4979806;28;20180;-95
2022/01/15 11:18:05;;;;;;;30.20;13.03;;;5.10;99.90;;;;;;4979198;28;20223;-93
2022/01/15 11:20:33;;;;;;;26.67;13.17;;;5.20;99.90;;;;;;4979326;28;20181;-93
2022/01/15 11:23:02;;;;;;;37.03;13.80;;;5.20;99.90;;;;;;4979388;28;20177;-96
2022/01/15 11:25:29;;;;;;;31.40;12.77;;;5.20;99.90;;;;;;4979777;28;20207;-94
2022/01/15 11:27:57;;;;;;;33.33;12.97;;;5.20;99.90;;;;;;4978789;28;20192;-95
2022/01/15 11:30:23;;;;;;;34.40;12.67;;;5.30;99.90;;;;;;4979691;28;20612;-96
2022/01/15 11:32:49;;;;;;;29.90;12.00;;;5.30;99.90;;;;;;4980864;28;20185;-93
2022/01/15 11:35:15;;;;;;;25.30;11.53;;;5.40;99.90;;;;;;4979092;28;20179;-94
2022/01/15 11:37:46;;;;;;;25.80;11.90;;;5.30;99.90;;;;;;4971947;28;20197;-93
2022/01/15 11:40:39;;;;;;;26.43;12.57;;;5.40;99.90;;;;;;4978080;28;20320;-93
2022/01/15 11:43:23;;;;;;;31.17;13.97;;;5.40;99.90;;;;;;4977276;28;20199;-94
2022/01/15 11:45:50;;;;;;;30.03;12.57;;;5.50;99.90;;;;;;4978793;28;20168;-95
2022/01/15 11:48:27;;;;;;;25.93;12.13;;;5.40;99.90;;;;;;4978781;28;20184;-94
2022/01/15 11:51:15;;;;;;;28.07;11.50;;;5.50;99.90;;;;;;4978242;28;20657;-94
2022/01/15 11:53:49;;;;;;;24.93;10.17;;;5.50;99.90;;;;;;4979298;28;20176;-94
2022/01/15 11:56:39;;;;;;;27.50;10.03;;;5.50;99.90;;;;;;4979200;28;20564;-95
2022/01/15 11:59:23;;;;;;;26.70;9.97;;;5.50;99.90;;;;;;4971340;28;20191;-95
2022/01/15 12:01:50;;;;;;;33.23;10.80;;;5.50;99.90;;;;;;4978828;28;20216;-95
2022/01/15 12:04:37;;;;;;;25.30;8.23;;;5.50;99.90;;;;;;4979579;28;20187;-94
2022/01/15 12:07:06;;;;;;;23.20;5.97;;;5.50;99.90;;;;;;4978543;28;20259;-95
2022/01/15 12:09:43;;;;;;;18.37;6.60;;;5.50;99.90;;;;;;4978374;28;20179;-94
2022/01/15 12:12:26;;;;;;;24.37;7.20;;;5.50;99.90;;;;;;4978704;28;20267;-96
2022/01/15 12:15:07;;;;;;;21.53;6.93;;;5.50;99.90;;;;;;4978038;28;20169;-95
2022/01/15 12:17:39;;;;;;;22.13;5.63;;;5.50;99.90;;;;;;4978804;28;20227;-95
2022/01/15 12:20:20;;;;;;;21.53;6.97;;;5.40;99.90;;;;;;4978994;28;20183;-95
2022/01/15 12:22:54;;;;;;;22.00;8.23;;;5.40;99.90;;;;;;4978174;28;20199;-96
2022/01/15 12:25:22;;;;;;;22.70;7.47;;;5.40;99.90;;;;;;4978657;28;20180;-95
2022/01/15 12:28:06;;;;;;;21.73;7.07;;;5.40;99.90;;;;;;4978652;28;20224;-96
2022/01/15 12:30:35;;;;;;;21.60;7.07;;;5.40;99.90;;;;;;4978556;28;20176;-95
2022/01/15 12:33:03;;;;;;;25.00;7.47;;;5.40;99.90;;;;;;4977719;28;20191;-96
2022/01/15 12:35:32;;;;;;;20.70;7.03;;;5.40;99.90;;;;;;4977881;28;20612;-95
2022/01/15 12:37:59;;;;;;;22.70;7.43;;;5.40;99.90;;;;;;4978085;28;20522;-94
2022/01/15 12:40:45;;;;;;;28.17;8.33;;;5.40;99.90;;;;;;4977396;28;20181;-95
2022/01/15 12:43:26;;;;;;;17.63;6.37;;;5.40;99.90;;;;;;4977579;28;20216;-94
2022/01/15 12:45:55;;;;;;;23.07;7.40;;;5.40;99.90;;;;;;4978256;28;20187;-95
2022/01/15 12:48:24;;;;;;;25.57;7.23;;;5.50;99.90;;;;;;4977890;28;20181;-95
2022/01/15 12:50:56;;;;;;;26.20;7.90;;;5.50;99.90;;;;;;4977975;28;20183;-94
2022/01/15 12:53:30;;;;;;;19.33;7.37;;;5.50;99.90;;;;;;4978247;28;20185;-95
2022/01/15 12:55:57;;;;;;;22.10;6.80;;;5.50;99.90;;;;;;4977096;28;20629;-95
2022/01/15 12:58:26;;;;;;;24.07;7.23;;;5.40;99.90;;;;;;4978702;28;20173;-95
2022/01/15 13:00:52;;;;;;;22.47;7.17;;;5.40;99.90;;;;;;4977805;28;20219;-95
2022/01/15 13:03:20;;;;;;;21.33;7.10;;;5.40;99.90;;;;;;4977937;28;20674;-93
2022/01/15 13:05:52;;;;;;;25.80;7.70;;;5.40;99.90;;;;;;4977758;28;20176;-94
2022/01/15 13:08:24;;;;;;;24.73;6.97;;;5.40;99.90;;;;;;4977262;28;20189;-94
2022/01/15 13:10:57;;;;;;;25.63;7.93;;;5.40;99.90;;;;;;4977108;28;20276;-95
2022/01/15 13:13:30;;;;;;;22.90;6.70;;;5.40;99.90;;;;;;4977509;28;20250;-96
2022/01/15 13:16:16;;;;;;;17.53;6.43;;;5.40;99.90;;;;;;4977581;28;20604;-94
2022/01/15 13:18:48;;;;;;;18.70;6.70;;;5.30;99.90;;;;;;4977244;28;20181;-94
2022/01/15 13:21:19;;;;;;;19.10;5.87;;;5.30;99.90;;;;;;4977228;28;20535;-94
2022/01/15 13:23:47;;;;;;;21.63;6.43;;;5.40;99.90;;;;;;4978764;28;20518;-95
2022/01/15 13:26:21;;;;;;;16.13;6.03;;;5.40;99.90;;;;;;4977274;28;20236;-94
2022/01/15 13:28:48;;;;;;;18.63;6.27;;;5.30;99.90;;;;;;4977086;28;20172;-94
2022/01/15 13:31:14;;;;;;;24.37;7.63;;;5.40;99.90;;;;;;4977813;28;20279;-95
2022/01/15 13:33:44;;;;;;;25.53;6.83;;;5.40;99.90;;;;;;4975961;28;20637;-94
2022/01/15 13:36:16;;;;;;;18.47;6.73;;;5.40;99.90;;;;;;4977436;28;20189;-95
2022/01/15 13:38:44;;;;;;;24.53;6.33;;;5.40;99.90;;;;;;4977393;28;20235;-94